Portada
METAR-TAF:

METAR-TAF

Aeroports :

Jaipur, Índia

latitud: 26-49N, longitud: 075-48E, altitud: 385 m

Observació

L'informe es va fer fa 37 minuts, a les 16:30 UTC
Vent 10 kt del Nord-Est
Temperatura 31°C
Humitat 46%
Pressió 1000 hPa
Visibilitat: 4000 m
Núvols disperses a una alçada de 2500 ft
Escasses núvols a una alçada de 3000 ft, Cumulonimbus.
Cel ennuvolat a una alçada de 9000 ft
pluja

METAR: VIJP 231630Z 05010KT 4000 -RA SCT025 FEW030CB BKN090 31/18 Q1000 BECMG 3000 TSRA

Hora: 22:37 (17:07 UTC)

Pronòstic

L'informe es va fer fa 3 hores i 7 minuts, a les 14:00 UTC
Pronòstic vàlid del 23 a les 15 UTC al 23 a les 24 UTC
Vent 5 kt del Sud
Visibilitat: 3000 m
Núvols disperses a una alçada de 10000 ft
calitja
Evolucionant progressivament
l' 18 a les 20 UTC al 18 a les 22 UTC
Vent 5 kt del Sud-Est

TAF: VIJP 231400Z 2315/2324 18005KT 3000 HZ SCT100 BECMG 1820/1822 14005KT

Observacions i pronòstics meteorològics de més de 4000 aeroports (METAR i TAF).

Les estacions disponibles són els punts grocs i vermells al mapa.

Posi el ratolí al punt desitjat per veure el nom de l'estació.

Feu clic per veure les observacions i els pronòstics meteorològics.

Per canviar el mapa: feu clic els botons verds amb una creu de color negre per apropar; al botó verd amb un guió per allunyar la imatge; o en les fletxes verdes per a mapes adjacents.


METAR-TAF: